Butterfly — C6UP2 — position and weather

sailwx.info

Track history (hours):
 
Tides and Currents Weather Stations Pressure Air Temp Water Temp Dewpoint Dewpoint Depression Visibility Wind Speed Wind Dir Waves Ship Positions

Butterfly

Last reported at 2016-May-26 17:34 UTC. Time now 2016-May-26 18:25 UTC.
Position N 52°12' E 003°03'.

Length 182 m; draft 10.8 m.

Type: Tanker. MMSI: 311985000.

Date/timePositionNaut miles runAvg speedWind from/ knotsBaromVisibWave heightAir tempDewpointWater temp
2016-May-26 17:34N 52°12' E 003°03'1111.2
2016-May-26 16:34N 52°21' E 003°15'1211.5
2016-May-26 15:33N 52°29' E 003°29'1212.1
2016-May-26 14:33N 52°31' E 003°48'1312.6
2016-May-26 13:34N 52°31' E 004°09'1212.2
2016-May-26 12:34N 52°29' E 004°29'5 4.9
2016-May-26 11:33N 52°28' E 004°37'4 4.5
2016-May-26 10:34N 52°26' E 004°43'3 2.7
2016-May-26 09:29N 52°24' E 004°47'0 0.0
2016-May-26 08:17N 52°24' E 004°47'0 0.0
2016-May-26 07:32N 52°24' E 004°47'0 0.0
2016-May-26 06:32N 52°24' E 004°47'0 0.0
2016-May-26 05:32N 52°24' E 004°47'0 0.0
2016-May-26 04:32N 52°24' E 004°47'0 0.0
2016-May-26 03:32N 52°24' E 004°47'0 0.0
2016-May-26 02:32N 52°24' E 004°47'0 0.0
2016-May-26 01:32N 52°24' E 004°47'0 0.0
2016-May-26 00:32N 52°24' E 004°47'0 0.0
2016-May-25 23:32N 52°24' E 004°47'0 0.0
2016-May-25 22:32N 52°24' E 004°47'0 0.0
2016-May-25 21:32N 52°24' E 004°47'0 0.0
2016-May-25 20:29N 52°24' E 004°47'0 0.0
2016-May-25 19:29N 52°24' E 004°47'0 0.0
2016-May-25 18:32N 52°24' E 004°47'0 0.0
2016-May-25 17:32N 52°24' E 004°47'0 0.0
2016-May-25 16:32N 52°24' E 004°47'0 0.0
2016-May-25 15:32N 52°24' E 004°47'0 0.0
2016-May-25 14:32N 52°24' E 004°47'0 0.0
2016-May-25 13:26N 52°24' E 004°47'0 0.0
2016-May-25 12:29N 52°24' E 004°47'0 0.0
2016-May-25 11:32N 52°24' E 004°47'0 0.0
2016-May-25 10:32N 52°24' E 004°47'0 0.0
2016-May-25 09:32N 52°24' E 004°47'0 0.0
2016-May-25 08:32N 52°24' E 004°47'0 0.0
2016-May-25 07:32N 52°24' E 004°47'0 0.0
2016-May-25 06:32N 52°24' E 004°47'0 0.0
2016-May-25 05:29N 52°24' E 004°47'0 0.0
2016-May-25 04:32N 52°24' E 004°47'0 0.0
2016-May-25 03:32N 52°24' E 004°47'0 0.0
2016-May-25 02:32N 52°24' E 004°47'0 0.0
2016-May-25 01:32N 52°24' E 004°47'0 0.0
2016-May-25 00:29N 52°24' E 004°47'0 0.0
2016-May-24 23:32N 52°24' E 004°47'0 0.1
2016-May-24 22:33N 52°24' E 004°47'6 5.5
2016-May-24 21:33N 52°28' E 004°40'3 2.8
2016-May-24 20:34N 52°28' E 004°35'10 9.6
2016-May-24 19:34N 52°29' E 004°19'9 9.4
2016-May-24 18:33N 52°28' E 004°04'2 1.7
2016-May-24 17:30N 52°27' E 004°02'0 0.0
2016-May-24 16:33N 52°27' E 004°02'0 0.1
2016-May-24 15:33N 52°26' E 004°02'0 0.1
2016-May-24 14:27N 52°26' E 004°02'0 0.0
2016-May-24 13:30N 52°26' E 004°02'0 0.0
2016-May-24 12:30N 52°26' E 004°02'0 0.0
2016-May-24 11:33N 52°26' E 004°02'0 0.0
2016-May-24 10:33N 52°26' E 004°02'0 0.0
2016-May-24 09:30N 52°26' E 004°02'0 0.0
2016-May-24 08:24N 52°26' E 004°02'0 0.0
2016-May-24 07:27N 52°26' E 004°02'0 0.0
2016-May-24 06:33N 52°26' E 004°02'0 0.4
2016-May-24 05:33N 52°26' E 004°03'9 9.1
2016-May-24 04:33N 52°26' E 003°48'1313.0
2016-May-24 03:32N 52°27' E 003°26'1511.4
2016-May-24 02:15N 52°35' E 003°06'24313.0
2016-May-23 07:30N 56°11' E 006°17'1313.4
2016-May-23 06:31N 56°23' E 006°27'1313.4
2016-May-23 05:33N 56°35' E 006°38'1813.4
2016-May-23 04:12N 56°51' E 006°53'12012.4
2016-May-22 18:33N 57°49' E 010°07'1212.4
2016-May-22 17:33N 57°49' E 010°30'1111.3
2016-May-22 16:33N 57°46' E 010°51'1312.8
2016-May-22 15:33N 57°37' E 011°08'1312.9
2016-May-22 14:33N 57°29' E 011°25'1313.0
2016-May-22 13:33N 57°16' E 011°34'1312.9
2016-May-22 12:33N 57°04' E 011°41'1312.8
2016-May-22 11:33N 56°52' E 011°50'10 9.6
2016-May-22 10:33N 56°43' E 011°48'1512.6
2016-May-22 09:20N 56°32' E 011°27'1012.7
2016-May-22 08:33N 56°26' E 011°14'1111.3
2016-May-22 07:33N 56°15' E 011°06'1413.9
2016-May-22 06:33N 56°02' E 011°04'1514.2
2016-May-22 05:32N 55°49' E 010°50'1414.0
2016-May-22 04:33N 55°36' E 010°49'1414.2
2016-May-22 03:33N 55°23' E 011°01'1111.0
2016-May-22 02:33N 55°13' E 011°06'1111.1
2016-May-22 01:33N 55°02' E 011°02'1010.3
2016-May-22 00:33N 54°54' E 010°51'1313.0
2016-May-21 23:33N 54°41' E 010°47'1313.5
2016-May-21 22:34N 54°36' E 011°09'1414.1
2016-May-21 21:34N 54°31' E 011°31'1414.3
2016-May-21 20:33N 54°27' E 011°55'1111.1
2016-May-21 19:33N 54°30' E 012°13'1211.6
2016-May-21 18:33N 54°40' E 012°24'1413.7
2016-May-21 17:31N 54°48' E 012°44'1313.5
2016-May-21 16:33N 54°52' E 013°05'1413.9
2016-May-21 15:33N 54°57' E 013°28'1413.6
2016-May-21 14:33N 55°02' E 013°50'1212.4
2016-May-21 13:33N 55°08' E 014°09'1313.0
2016-May-21 12:33N 55°18' E 014°23'1312.8
2016-May-21 11:33N 55°27' E 014°39'1313.1
2016-May-21 10:33N 55°33' E 014°60'1313.0
2016-May-21 09:33N 55°39' E 015°20'1313.0
2016-May-21 08:32N 55°42' E 015°43'12912.6
2016-May-20 22:17N 55°45' E 019°33'  
Track history (hours):
 
Tides and Currents Weather Stations Pressure Air Temp Water Temp Dewpoint Dewpoint Depression Visibility Wind Speed Wind Dir Waves Ship Positions

Butterfly

Last reported at 2016-May-26 17:34 UTC. Time now 2016-May-26 18:25 UTC.
Position N 52°12' E 003°03'.

Length 182 m; draft 10.8 m.

Type: Tanker. MMSI: 311985000.

Date/timePositionNaut miles runAvg speedWind from/ knotsBaromVisibWave heightAir tempDewpointWater temp
2016-May-26 17:34N 52°12' E 003°03'1111.2
2016-May-26 16:34N 52°21' E 003°15'1211.5
2016-May-26 15:33N 52°29' E 003°29'1212.1
2016-May-26 14:33N 52°31' E 003°48'1312.6
2016-May-26 13:34N 52°31' E 004°09'1212.2
2016-May-26 12:34N 52°29' E 004°29'5 4.9
2016-May-26 11:33N 52°28' E 004°37'4 4.5
2016-May-26 10:34N 52°26' E 004°43'3 2.7
2016-May-26 09:29N 52°24' E 004°47'0 0.0
2016-May-26 08:17N 52°24' E 004°47'0 0.0
2016-May-26 07:32N 52°24' E 004°47'0 0.0
2016-May-26 06:32N 52°24' E 004°47'0 0.0
2016-May-26 05:32N 52°24' E 004°47'0 0.0
2016-May-26 04:32N 52°24' E 004°47'0 0.0
2016-May-26 03:32N 52°24' E 004°47'0 0.0
2016-May-26 02:32N 52°24' E 004°47'0 0.0
2016-May-26 01:32N 52°24' E 004°47'0 0.0
2016-May-26 00:32N 52°24' E 004°47'0 0.0
2016-May-25 23:32N 52°24' E 004°47'0 0.0
2016-May-25 22:32N 52°24' E 004°47'0 0.0
2016-May-25 21:32N 52°24' E 004°47'0 0.0
2016-May-25 20:29N 52°24' E 004°47'0 0.0
2016-May-25 19:29N 52°24' E 004°47'0 0.0
2016-May-25 18:32N 52°24' E 004°47'0 0.0
2016-May-25 17:32N 52°24' E 004°47'0 0.0
2016-May-25 16:32N 52°24' E 004°47'0 0.0
2016-May-25 15:32N 52°24' E 004°47'0 0.0
2016-May-25 14:32N 52°24' E 004°47'0 0.0
2016-May-25 13:26N 52°24' E 004°47'0 0.0
2016-May-25 12:29N 52°24' E 004°47'0 0.0
2016-May-25 11:32N 52°24' E 004°47'0 0.0
2016-May-25 10:32N 52°24' E 004°47'0 0.0
2016-May-25 09:32N 52°24' E 004°47'0 0.0
2016-May-25 08:32N 52°24' E 004°47'0 0.0
2016-May-25 07:32N 52°24' E 004°47'0 0.0
2016-May-25 06:32N 52°24' E 004°47'0 0.0
2016-May-25 05:29N 52°24' E 004°47'0 0.0
2016-May-25 04:32N 52°24' E 004°47'0 0.0
2016-May-25 03:32N 52°24' E 004°47'0 0.0
2016-May-25 02:32N 52°24' E 004°47'0 0.0
2016-May-25 01:32N 52°24' E 004°47'0 0.0
2016-May-25 00:29N 52°24' E 004°47'0 0.0
2016-May-24 23:32N 52°24' E 004°47'0 0.1
2016-May-24 22:33N 52°24' E 004°47'6 5.5
2016-May-24 21:33N 52°28' E 004°40'3 2.8
2016-May-24 20:34N 52°28' E 004°35'10 9.6
2016-May-24 19:34N 52°29' E 004°19'9 9.4
2016-May-24 18:33N 52°28' E 004°04'2 1.7
2016-May-24 17:30N 52°27' E 004°02'0 0.0
2016-May-24 16:33N 52°27' E 004°02'0 0.1
2016-May-24 15:33N 52°26' E 004°02'0 0.1
2016-May-24 14:27N 52°26' E 004°02'0 0.0
2016-May-24 13:30N 52°26' E 004°02'0 0.0
2016-May-24 12:30N 52°26' E 004°02'0 0.0
2016-May-24 11:33N 52°26' E 004°02'0 0.0
2016-May-24 10:33N 52°26' E 004°02'0 0.0
2016-May-24 09:30N 52°26' E 004°02'0 0.0
2016-May-24 08:24N 52°26' E 004°02'0 0.0
2016-May-24 07:27N 52°26' E 004°02'0 0.0
2016-May-24 06:33N 52°26' E 004°02'0 0.4
2016-May-24 05:33N 52°26' E 004°03'9 9.1
2016-May-24 04:33N 52°26' E 003°48'1313.0
2016-May-24 03:32N 52°27' E 003°26'1511.4
2016-May-24 02:15N 52°35' E 003°06'24313.0
2016-May-23 07:30N 56°11' E 006°17'1313.4
2016-May-23 06:31N 56°23' E 006°27'1313.4
2016-May-23 05:33N 56°35' E 006°38'1813.4
2016-May-23 04:12N 56°51' E 006°53'12012.4
2016-May-22 18:33N 57°49' E 010°07'1212.4
2016-May-22 17:33N 57°49' E 010°30'1111.3
2016-May-22 16:33N 57°46' E 010°51'1312.8
2016-May-22 15:33N 57°37' E 011°08'1312.9
2016-May-22 14:33N 57°29' E 011°25'1313.0
2016-May-22 13:33N 57°16' E 011°34'1312.9
2016-May-22 12:33N 57°04' E 011°41'1312.8
2016-May-22 11:33N 56°52' E 011°50'10 9.6
2016-May-22 10:33N 56°43' E 011°48'1512.6
2016-May-22 09:20N 56°32' E 011°27'1012.7
2016-May-22 08:33N 56°26' E 011°14'1111.3
2016-May-22 07:33N 56°15' E 011°06'1413.9
2016-May-22 06:33N 56°02' E 011°04'1514.2
2016-May-22 05:32N 55°49' E 010°50'1414.0
2016-May-22 04:33N 55°36' E 010°49'1414.2
2016-May-22 03:33N 55°23' E 011°01'1111.0
2016-May-22 02:33N 55°13' E 011°06'1111.1
2016-May-22 01:33N 55°02' E 011°02'1010.3
2016-May-22 00:33N 54°54' E 010°51'1313.0
2016-May-21 23:33N 54°41' E 010°47'1313.5
2016-May-21 22:34N 54°36' E 011°09'1414.1
2016-May-21 21:34N 54°31' E 011°31'1414.3
2016-May-21 20:33N 54°27' E 011°55'1111.1
2016-May-21 19:33N 54°30' E 012°13'1211.6
2016-May-21 18:33N 54°40' E 012°24'1413.7
2016-May-21 17:31N 54°48' E 012°44'1313.5
2016-May-21 16:33N 54°52' E 013°05'1413.9
2016-May-21 15:33N 54°57' E 013°28'1413.6
2016-May-21 14:33N 55°02' E 013°50'1212.4
2016-May-21 13:33N 55°08' E 014°09'1313.0
2016-May-21 12:33N 55°18' E 014°23'1312.8
2016-May-21 11:33N 55°27' E 014°39'1313.1
2016-May-21 10:33N 55°33' E 014°60'1313.0
2016-May-21 09:33N 55°39' E 015°20'1313.0
2016-May-21 08:32N 55°42' E 015°43'12912.6
2016-May-20 22:17N 55°45' E 019°33'  

Dump ship's entire track history